createdAt,value
2022-09-09T04:27:59.556Z,18.63
2022-09-09T04:30:40.807Z,16.63
2022-09-09T04:33:09.689Z,16.90
2022-09-09T04:35:39.129Z,19.10
2022-09-09T04:38:08.691Z,18.53
2022-09-09T04:40:37.420Z,17.43
2022-09-09T04:43:11.414Z,17.50
2022-09-09T04:45:42.759Z,19.33
2022-09-09T04:48:12.534Z,17.33
2022-09-09T04:50:43.086Z,17.97
2022-09-09T04:53:13.519Z,17.20
2022-09-09T04:55:43.754Z,18.83
2022-09-09T04:58:15.275Z,19.23
2022-09-09T05:00:44.609Z,17.80
2022-09-09T05:03:14.131Z,18.90
2022-09-09T05:05:42.737Z,17.57
2022-09-09T05:08:11.945Z,19.13
2022-09-09T05:10:43.127Z,19.17
2022-09-09T05:13:12.517Z,19.67
2022-09-09T05:15:44.324Z,19.07
2022-09-09T05:18:13.380Z,18.50
2022-09-09T05:20:43.902Z,19.67
2022-09-09T05:23:14.586Z,23.80
2022-09-09T05:25:43.658Z,24.43
2022-09-09T05:28:12.846Z,25.67
2022-09-09T05:30:42.890Z,27.23
2022-09-09T05:33:11.512Z,30.93
2022-09-09T05:35:40.373Z,25.10
2022-09-09T05:38:09.729Z,26.10
2022-09-09T05:40:38.320Z,24.33
2022-09-09T05:43:06.886Z,25.07
2022-09-09T05:45:36.146Z,24.20
2022-09-09T05:48:07.002Z,23.80
2022-09-09T05:50:36.070Z,22.63
2022-09-09T05:53:05.361Z,24.07
2022-09-09T05:55:34.021Z,23.13
2022-09-09T05:58:04.007Z,23.30
2022-09-09T06:00:34.534Z,25.10
2022-09-09T06:03:03.516Z,23.00
2022-09-09T06:05:35.994Z,23.60
2022-09-09T06:08:05.173Z,18.80
2022-09-09T06:10:33.768Z,19.47
2022-09-09T06:13:02.587Z,18.77
2022-09-09T06:15:33.299Z,16.30
2022-09-09T06:18:01.990Z,16.17
2022-09-09T06:20:31.977Z,13.87
2022-09-09T06:23:02.045Z,14.53
2022-09-09T06:25:30.771Z,13.07
2022-09-09T06:27:59.423Z,14.30
2022-09-09T06:30:27.947Z,14.63
2022-09-09T06:32:59.238Z,14.57
2022-09-09T06:35:28.006Z,11.50
2022-09-09T06:37:56.602Z,10.47
2022-09-09T06:40:26.674Z,8.20
2022-09-09T06:42:55.315Z,10.13
2022-09-09T06:45:23.914Z,8.70
2022-09-09T06:47:53.575Z,7.30
2022-09-09T06:50:22.162Z,11.37
2022-09-09T06:52:50.808Z,8.27
2022-09-09T06:55:19.476Z,8.67
2022-09-09T06:57:49.742Z,8.00
2022-09-09T07:00:19.134Z,7.03
2022-09-09T07:02:48.068Z,5.87
2022-09-09T07:05:17.126Z,6.57
2022-09-09T07:07:45.730Z,4.23
2022-09-09T07:10:14.324Z,5.03
2022-09-09T07:12:42.845Z,4.13
2022-09-09T07:15:13.538Z,3.73
2022-09-09T07:17:43.985Z,3.10
2022-09-09T07:20:13.334Z,3.37
2022-09-09T07:22:42.614Z,3.93
2022-09-09T07:25:11.657Z,4.13
2022-09-09T07:27:40.145Z,3.63
2022-09-09T07:30:10.561Z,2.97
2022-09-09T07:32:41.206Z,5.60
2022-09-09T07:35:10.711Z,3.30
2022-09-09T07:37:39.814Z,4.20
2022-09-09T07:40:10.133Z,3.80
2022-09-09T07:42:39.079Z,2.90
2022-09-09T07:45:08.566Z,2.78
2022-09-09T07:47:37.303Z,3.08
2022-09-09T07:50:08.250Z,2.90
2022-09-09T07:52:37.631Z,2.90
2022-09-09T07:55:07.388Z,2.25
2022-09-09T07:57:36.681Z,2.30
2022-09-09T08:00:07.106Z,2.30
2022-09-09T08:02:35.869Z,2.55
2022-09-09T08:05:04.762Z,2.60
2022-09-09T08:07:34.916Z,2.40
2022-09-09T08:10:03.620Z,2.30
2022-09-09T08:12:32.473Z,1.75
2022-09-09T08:15:01.152Z,3.10
2022-09-09T08:17:29.837Z,2.28
2022-09-09T08:19:59.585Z,2.65
2022-09-09T08:22:28.435Z,2.08
2022-09-09T08:24:59.548Z,4.63
2022-09-09T08:27:28.230Z,2.05
2022-09-09T08:29:57.338Z,3.47
2022-09-09T08:32:25.956Z,3.28
2022-09-09T08:34:54.927Z,3.70
2022-09-09T08:37:23.780Z,5.75
2022-09-09T08:39:54.416Z,2.00
2022-09-09T08:42:43.329Z,2.25
2022-09-09T08:45:36.173Z,1.95
2022-09-09T08:48:23.456Z,2.60
2022-09-09T08:50:53.729Z,1.77
2022-09-09T08:53:27.433Z,2.55
2022-09-09T08:56:00.588Z,3.78
2022-09-09T08:58:33.446Z,1.50
2022-09-09T09:01:28.011Z,1.48
2022-09-09T09:04:05.785Z,2.83
2022-09-09T09:06:45.304Z,2.65
2022-09-09T09:09:20.659Z,2.30
2022-09-09T09:11:53.864Z,2.30
2022-09-09T09:14:26.224Z,1.70
2022-09-09T09:17:00.429Z,1.77
2022-09-09T09:19:31.975Z,2.38
2022-09-09T09:22:08.637Z,1.75
2022-09-09T09:24:45.734Z,2.17
2022-09-09T09:27:18.633Z,1.60
2022-09-09T09:30:18.423Z,1.90
2022-09-09T09:32:47.485Z,1.70
2022-09-09T09:35:16.653Z,2.17
2022-09-09T09:40:37.009Z,1.95
2022-09-09T09:43:09.862Z,2.20
2022-09-09T09:46:06.825Z,1.40
2022-09-09T09:48:35.981Z,2.13
2022-09-09T09:51:11.738Z,1.90
2022-09-09T09:53:42.067Z,2.47
2022-09-09T09:56:13.601Z,1.67
2022-09-09T09:58:56.261Z,1.75
2022-09-09T10:01:29.012Z,2.17
2022-09-09T10:04:05.288Z,2.08
2022-09-09T10:06:37.822Z,1.60
2022-09-09T10:09:22.850Z,1.67
2022-09-09T10:11:58.441Z,1.52
2022-09-09T10:14:36.601Z,2.42
2022-09-09T10:17:18.327Z,1.50
2022-09-09T10:20:00.246Z,2.08
2022-09-09T10:22:30.360Z,1.60
2022-09-09T10:25:23.790Z,1.65
2022-09-09T10:28:12.876Z,2.58
2022-09-09T10:30:57.355Z,3.50
2022-09-09T10:33:35.709Z,1.67
2022-09-09T10:36:12.260Z,2.53
2022-09-09T10:38:44.715Z,3.05
2022-09-09T10:41:20.852Z,1.60
2022-09-09T10:44:15.234Z,3.35
2022-09-09T10:47:01.773Z,2.05
2022-09-09T10:49:46.547Z,2.88
2022-09-09T10:52:24.594Z,1.35
2022-09-09T10:55:02.814Z,1.17
2022-09-09T10:57:37.820Z,1.35
2022-09-09T11:00:09.859Z,1.17
2022-09-09T11:02:40.639Z,2.13
2022-09-09T11:05:17.786Z,1.30
2022-09-09T11:07:53.850Z,1.23
2022-09-09T11:10:29.365Z,1.40
2022-09-09T11:13:08.243Z,1.60
2022-09-09T11:15:44.419Z,1.40
2022-09-09T11:18:17.978Z,1.58
2022-09-09T11:20:51.106Z,1.17
2022-09-09T11:23:24.615Z,1.20
2022-09-09T11:25:58.269Z,2.42
2022-09-09T11:28:44.260Z,3.70
2022-09-09T11:31:27.833Z,1.63
2022-09-09T11:34:28.657Z,1.50
2022-09-09T11:37:18.621Z,1.50
2022-09-09T11:40:20.564Z,1.40
2022-09-09T11:42:51.039Z,1.80
2022-09-09T11:45:27.855Z,4.85
2022-09-09T11:48:00.332Z,3.00
2022-09-09T11:50:38.620Z,1.40
2022-09-09T11:53:25.000Z,1.35
2022-09-09T11:56:15.074Z,1.30
2022-09-09T11:58:48.301Z,2.20
2022-09-09T12:01:44.921Z,1.65
2022-09-09T12:04:24.869Z,1.42
2022-09-09T12:06:56.376Z,2.55
2022-09-09T12:09:32.524Z,3.20
2022-09-09T12:12:24.498Z,2.55
2022-09-09T12:15:02.281Z,3.72
2022-09-09T12:17:32.674Z,1.60
2022-09-09T12:20:15.510Z,1.30
2022-09-09T12:22:55.220Z,1.27
2022-09-09T12:25:33.356Z,2.63
2022-09-09T12:28:09.265Z,1.50
2022-09-09T12:30:46.681Z,1.50
2022-09-09T12:33:22.624Z,2.35
2022-09-09T12:35:56.640Z,1.67
2022-09-09T12:38:32.950Z,2.70
2022-09-09T12:41:03.095Z,1.77
2022-09-09T12:43:32.092Z,1.55
2022-09-09T12:46:04.895Z,2.15
2022-09-09T12:48:40.045Z,1.65
2022-09-09T12:51:20.560Z,1.40
2022-09-09T12:53:51.729Z,1.42
2022-09-09T12:56:28.177Z,2.50
2022-09-09T12:58:59.482Z,3.60
2022-09-09T13:01:33.882Z,1.58
2022-09-09T13:04:03.223Z,1.75
2022-09-09T13:06:33.816Z,2.40
2022-09-09T13:09:03.864Z,1.50
2022-09-09T13:11:40.723Z,1.20
2022-09-09T13:14:20.244Z,1.58
2022-09-09T13:17:00.680Z,3.08
2022-09-09T13:19:34.740Z,4.18
2022-09-09T13:22:13.547Z,1.70
2022-09-09T13:24:43.899Z,1.88
2022-09-09T13:27:30.397Z,1.58
2022-09-09T13:29:59.145Z,1.48
2022-09-09T13:32:29.333Z,1.40
2022-09-09T13:35:01.440Z,1.00
2022-09-09T13:37:35.920Z,1.58
2022-09-09T13:40:07.201Z,1.02
2022-09-09T13:42:43.808Z,1.33
2022-09-09T13:45:21.701Z,1.70
2022-09-09T13:47:53.838Z,1.65
2022-09-09T13:50:26.393Z,1.50
2022-09-09T13:52:57.364Z,2.72
2022-09-09T13:55:31.980Z,1.08
2022-09-09T13:58:03.810Z,1.02
2022-09-09T14:00:33.902Z,1.25
2022-09-09T14:03:03.424Z,1.45
2022-09-09T14:05:35.373Z,1.08
2022-09-09T14:08:06.537Z,5.95
2022-09-09T14:10:38.008Z,1.70
2022-09-09T14:13:09.654Z,1.30
2022-09-09T14:15:38.336Z,3.03
2022-09-09T14:18:07.303Z,2.25
2022-09-09T14:20:35.868Z,1.73
2022-09-09T14:23:07.174Z,1.30
2022-09-09T14:25:36.003Z,1.75
2022-09-09T14:28:05.124Z,1.50
2022-09-09T14:30:35.948Z,1.58
2022-09-09T14:33:04.787Z,1.52
2022-09-09T14:35:34.549Z,1.70
2022-09-09T14:38:03.690Z,2.22
2022-09-09T14:40:32.966Z,1.45
2022-09-09T14:43:01.997Z,1.73
2022-09-09T14:45:30.961Z,2.40
2022-09-09T14:48:01.402Z,1.60
2022-09-09T14:50:32.671Z,1.70
2022-09-09T14:53:02.304Z,2.00
2022-09-09T14:55:31.136Z,2.70
2022-09-09T14:57:59.787Z,3.53
2022-09-09T15:00:28.767Z,1.97
2022-09-09T15:02:57.910Z,1.92
2022-09-09T15:05:29.394Z,3.15
2022-09-09T15:07:59.786Z,1.50
2022-09-09T15:10:29.030Z,1.80
2022-09-09T15:12:58.717Z,1.42
2022-09-09T15:15:28.204Z,1.80
2022-09-09T15:17:57.747Z,2.73
2022-09-09T15:20:27.899Z,2.30
2022-09-09T15:22:57.726Z,1.80
2022-09-09T15:25:26.418Z,2.70
2022-09-09T15:27:55.032Z,2.47
2022-09-09T15:30:23.734Z,2.00
2022-09-09T15:32:54.219Z,3.50
2022-09-09T15:35:22.903Z,2.40
2022-09-09T15:37:53.015Z,2.63
2022-09-09T15:40:22.133Z,2.90
2022-09-09T15:42:50.882Z,2.70
